Time;durP1;ratioP1;P1;durP2;ratioP2;P2;SDS_P1;SDS_P2;PMS_P1;PMS_P2;Temp;Humidity;BMP_temperature;BMP_pressure;BME280_temperature;BME280_humidity;BME280_pressure;Samples;Min_cycle;Max_cycle;Signal;HPM_P1;HPM_P2
2022/12/07 00:01:08;;;;;;;16.33;6.05;;;;;;;0.75;100.00;93804.75;4999542;28;20418;-67
2022/12/07 00:03:35;;;;;;;14.32;5.20;;;;;;;0.92;100.00;93806.22;4983148;28;20047;-68
2022/12/07 00:06:04;;;;;;;15.32;5.93;;;;;;;0.74;100.00;93805.88;4994076;28;20410;-67
2022/12/07 00:08:32;;;;;;;18.53;6.00;;;;;;;0.60;100.00;93800.94;5010084;28;20058;-67
2022/12/07 00:11:11;;;;;;;16.17;6.03;;;;;;;0.85;100.00;93798.75;4993836;28;20038;-66
2022/12/07 00:13:39;;;;;;;18.48;6.55;;;;;;;0.98;100.00;93793.97;5010049;28;20054;-66
2022/12/07 00:16:12;;;;;;;14.45;5.57;;;;;;;0.81;100.00;93803.31;5009063;28;20847;-66
2022/12/07 00:18:40;;;;;;;14.70;5.50;;;;;;;0.77;100.00;93794.34;4997692;28;20077;-66
2022/12/07 00:21:11;;;;;;;17.30;5.80;;;;;;;0.85;100.00;93789.88;5008072;28;20886;-66
2022/12/07 00:23:38;;;;;;;15.00;5.50;;;;;;;0.74;100.00;93792.34;5009823;28;20050;-66
2022/12/07 00:26:16;;;;;;;16.63;6.28;;;;;;;0.55;100.00;93785.06;5008586;28;20638;-66
2022/12/07 00:28:54;;;;;;;18.65;6.38;;;;;;;0.71;100.00;93795.78;5009784;28;20041;-66
2022/12/07 00:31:23;;;;;;;20.65;5.90;;;;;;;0.71;100.00;93793.09;5008842;28;20925;-66
2022/12/07 00:33:50;;;;;;;17.60;6.20;;;;;;;0.52;100.00;93791.91;5009515;28;20046;-66
2022/12/07 00:36:20;;;;;;;18.98;6.65;;;;;;;0.56;100.00;93786.59;4993688;28;20934;-66
2022/12/07 00:38:53;;;;;;;15.45;5.57;;;;;;;0.84;100.00;93791.00;5008992;28;20053;-66
2022/12/07 00:41:21;;;;;;;16.33;5.90;;;;;;;0.80;100.00;93785.53;5024970;28;20491;-66
2022/12/07 00:43:49;;;;;;;14.25;5.82;;;;;;;0.98;100.00;93785.88;5009407;28;20041;-66
2022/12/07 00:46:17;;;;;;;14.32;5.88;;;;;;;0.86;100.00;93786.03;5009791;28;20052;-67
2022/12/07 00:48:44;;;;;;;15.43;5.72;;;;;;;0.89;100.00;93782.63;5011975;28;20042;-65
2022/12/07 00:51:13;;;;;;;14.32;6.43;;;;;;;1.04;100.00;93779.03;5012532;28;20053;-66
2022/12/07 00:53:40;;;;;;;15.98;6.72;;;;;;;1.10;100.00;93782.22;5013534;28;20052;-66
2022/12/07 00:56:22;;;;;;;15.65;6.72;;;;;;;1.20;100.00;93781.63;5007609;28;20038;-66
2022/12/07 00:58:51;;;;;;;15.48;6.03;;;;;;;1.26;100.00;93782.13;5013051;28;20092;-66
2022/12/07 01:01:18;;;;;;;18.05;7.00;;;;;;;1.23;100.00;93780.13;4997269;28;20859;-66
2022/12/07 01:03:44;;;;;;;17.23;6.25;;;;;;;1.19;100.00;93783.56;4993996;28;20058;-66
2022/12/07 01:06:15;;;;;;;14.55;5.90;;;;;;;1.18;100.00;93779.28;4998209;28;20055;-67
2022/12/07 01:08:42;;;;;;;15.38;5.95;;;;;;;1.25;100.00;93786.75;5011922;28;20347;-66
2022/12/07 01:11:13;;;;;;;15.43;5.88;;;;;;;1.26;100.00;93774.78;4997769;28;20050;-66
2022/12/07 01:13:40;;;;;;;14.95;6.10;;;;;;;1.26;100.00;93776.72;5012895;28;20053;-66
2022/12/07 01:16:07;;;;;;;14.23;5.60;;;;;;;1.27;100.00;93780.97;5011779;28;20054;-65
2022/12/07 01:18:35;;;;;;;14.20;5.28;;;;;;;1.27;100.00;93778.28;5001544;28;20056;-66
2022/12/07 01:21:09;;;;;;;13.50;5.40;;;;;;;1.15;100.00;93781.94;5009723;28;20046;-67
2022/12/07 01:23:36;;;;;;;13.75;5.15;;;;;;;0.93;100.00;93783.47;5012755;28;20046;-67
2022/12/07 01:26:07;;;;;;;17.17;6.10;;;;;;;1.06;100.00;93784.09;5010696;28;20041;-69
2022/12/07 01:28:34;;;;;;;15.20;5.55;;;;;;;0.98;100.00;93775.84;5012289;28;20048;-68
2022/12/07 01:31:06;;;;;;;14.23;5.90;;;;;;;0.98;100.00;93780.47;5011710;28;20056;-67
2022/12/07 01:33:36;;;;;;;15.52;5.45;;;;;;;0.68;100.00;93781.06;5012202;28;20384;-68
2022/12/07 01:36:20;;;;;;;14.18;5.88;;;;;;;0.68;100.00;93786.44;4999243;28;20529;-65
2022/12/07 01:38:48;;;;;;;14.88;5.53;;;;;;;0.65;100.00;93783.69;4999885;28;20058;-66
2022/12/07 01:41:15;;;;;;;24.50;8.20;;;;;;;0.67;100.00;93786.84;5000305;28;20050;-65
2022/12/07 01:44:07;;;;;;;19.92;6.60;;;;;;;0.47;100.00;93791.44;5009828;28;20040;-67
2022/12/07 01:46:33;;;;;;;20.67;6.28;;;;;;;0.34;100.00;93788.88;5011054;28;21433;-66
2022/12/07 01:49:01;;;;;;;19.13;6.78;;;;;;;0.46;100.00;93787.16;5011258;28;20046;-66
2022/12/07 01:51:28;;;;;;;17.80;6.97;;;;;;;0.59;100.00;93789.38;5011989;28;20107;-66
2022/12/07 01:53:55;;;;;;;21.52;7.38;;;;;;;0.55;100.00;93782.34;5011419;28;20049;-65
2022/12/07 01:56:26;;;;;;;19.00;6.13;;;;;;;0.60;100.00;93784.75;5004256;28;20042;-67
2022/12/07 01:58:55;;;;;;;16.95;6.20;;;;;;;0.65;100.00;93781.00;5010090;28;20517;-67
2022/12/07 02:01:22;;;;;;;15.23;5.60;;;;;;;0.77;100.00;93775.44;5000450;28;20056;-67
2022/12/07 02:03:49;;;;;;;15.63;5.68;;;;;;;0.91;100.00;93778.41;4992933;28;20046;-67
2022/12/07 02:06:21;;;;;;;13.02;5.43;;;;;;;0.76;100.00;93771.94;4997505;28;20065;-67
2022/12/07 02:08:48;;;;;;;14.63;5.63;;;;;;;0.70;100.00;93781.47;5010274;28;20046;-67
2022/12/07 02:11:15;;;;;;;12.32;5.35;;;;;;;0.95;100.00;93778.50;4997496;28;20080;-65
2022/12/07 02:13:44;;;;;;;12.40;4.67;;;;;;;1.04;100.00;93779.03;5011563;28;20048;-66
2022/12/07 02:16:32;;;;;;;12.20;4.57;;;;;;;1.16;100.00;93783.50;5010616;28;20042;-67
2022/12/07 02:19:25;;;;;;;12.20;4.72;;;;;;;1.06;100.00;93784.84;4996945;28;20047;-67
2022/12/07 02:22:18;;;;;;;12.32;4.38;;;;;;;0.87;100.00;93784.91;5010947;28;20062;-65
2022/12/07 02:25:20;;;;;;;10.88;4.30;;;;;;;0.79;100.00;93782.06;5010265;28;20125;-66
2022/12/07 02:27:56;;;;;;;8.50;3.67;;;;;;;0.94;100.00;93783.09;5009187;28;20643;-66
2022/12/07 02:30:27;;;;;;;10.02;4.00;;;;;;;1.07;100.00;93782.97;5010441;28;20429;-65
2022/12/07 02:33:04;;;;;;;8.45;3.90;;;;;;;1.13;100.00;93781.53;5026021;28;20045;-65
2022/12/07 02:35:54;;;;;;;9.77;3.92;;;;;;;0.98;100.00;93783.16;5000570;28;20046;-65
2022/12/07 02:38:43;;;;;;;11.13;4.70;;;;;;;0.90;100.00;93784.94;4996957;28;20796;-66
2022/12/07 02:41:12;;;;;;;10.80;4.00;;;;;;;0.90;100.00;93778.78;5010288;28;20050;-65
2022/12/07 02:43:47;;;;;;;11.38;4.88;;;;;;;0.89;100.00;93774.53;5011089;28;20049;-66
2022/12/07 02:46:22;;;;;;;12.00;4.63;;;;;;;0.72;100.00;93784.59;5010205;28;20044;-66
2022/12/07 02:48:50;;;;;;;13.30;4.88;;;;;;;0.78;100.00;93774.28;5011105;28;20041;-67
2022/12/07 02:51:18;;;;;;;11.10;4.55;;;;;;;0.67;100.00;93781.44;5009321;28;20797;-66
2022/12/07 02:53:45;;;;;;;13.38;4.70;;;;;;;0.66;100.00;93779.84;5010963;28;20411;-66
2022/12/07 02:56:25;;;;;;;11.38;4.63;;;;;;;0.54;100.00;93784.28;4999471;28;20066;-66
2022/12/07 02:59:03;;;;;;;11.70;4.95;;;;;;;0.61;100.00;93780.94;4985502;28;20453;-65
2022/12/07 03:01:51;;;;;;;13.93;5.28;;;;;;;0.50;100.00;93778.00;5010451;28;20053;-66
2022/12/07 03:04:47;;;;;;;12.48;5.05;;;;;;;0.50;100.00;93779.91;4999547;28;20776;-66
2022/12/07 03:07:44;;;;;;;14.73;5.45;;;;;;;0.42;100.00;93786.31;4982817;28;20476;-66
2022/12/07 03:10:28;;;;;;;13.65;5.00;;;;;;;0.43;100.00;93787.88;4995572;28;21080;-66
2022/12/07 03:13:07;;;;;;;14.55;5.47;;;;;;;0.30;100.00;93782.63;5010181;28;20046;-66
2022/12/07 03:15:33;;;;;;;11.90;4.55;;;;;;;0.41;100.00;93785.53;5010625;28;20048;-66
2022/12/07 03:18:02;;;;;;;10.30;4.32;;;;;;;0.33;100.00;93779.19;5009677;28;20508;-66
2022/12/07 03:20:32;;;;;;;9.87;4.10;;;;;;;0.45;100.00;93783.69;5010268;28;20045;-66
2022/12/07 03:22:59;;;;;;;11.15;4.50;;;;;;;0.36;100.00;93781.22;5009530;28;20079;-66
2022/12/07 03:25:27;;;;;;;11.65;4.90;;;;;;;0.39;100.00;93775.09;5000267;28;20047;-66
2022/12/07 03:28:02;;;;;;;11.27;4.80;;;;;;;0.38;100.00;93776.22;5010094;28;20107;-65
2022/12/07 03:30:36;;;;;;;12.00;5.55;;;;;;;0.28;100.00;93776.00;5010079;28;20049;-66
2022/12/07 03:33:12;;;;;;;13.32;5.20;;;;;;;0.31;100.00;93773.38;5009383;28;20045;-65
2022/12/07 03:35:54;;;;;;;11.88;4.90;;;;;;;0.32;100.00;93769.56;4991803;28;20056;-66
2022/12/07 03:38:32;;;;;;;11.57;4.97;;;;;;;0.54;100.00;93772.66;4981692;28;20053;-67
2022/12/07 03:41:11;;;;;;;12.10;5.05;;;;;;;0.48;100.00;93771.38;5000873;28;20057;-66
2022/12/07 03:43:39;;;;;;;10.85;4.63;;;;;;;0.27;100.00;93772.53;4998982;28;20050;-66
2022/12/07 03:46:37;;;;;;;12.50;4.93;;;;;;;0.15;100.00;93776.13;5007685;28;20406;-66
2022/12/07 03:49:16;;;;;;;10.98;4.82;;;;;;;0.28;100.00;93771.41;5009660;28;20042;-66
2022/12/07 03:52:03;;;;;;;11.38;4.93;;;;;;;0.29;100.00;93764.84;5002541;28;20049;-66
2022/12/07 03:54:37;;;;;;;13.13;4.93;;;;;;;0.33;100.00;93770.31;5005697;28;20935;-66
2022/12/07 03:57:05;;;;;;;10.70;4.45;;;;;;;0.26;100.00;93770.94;5002162;28;20057;-66
2022/12/07 03:59:33;;;;;;;10.40;4.65;;;;;;;0.26;100.00;93773.63;5010060;28;20046;-66
2022/12/07 04:02:05;;;;;;;12.25;4.88;;;;;;;0.36;100.00;93781.22;5009452;28;20132;-66
2022/12/07 04:04:33;;;;;;;11.43;4.40;;;;;;;0.37;100.00;93768.47;5010198;28;20125;-67
2022/12/07 04:07:00;;;;;;;10.50;4.53;;;;;;;0.42;100.00;93772.81;5009238;28;20491;-66
2022/12/07 04:09:27;;;;;;;12.00;4.63;;;;;;;0.38;100.00;93772.72;5011687;28;20056;-66
2022/12/07 04:11:54;;;;;;;10.55;5.10;;;;;;;0.46;100.00;93774.44;5004633;28;20394;-66
2022/12/07 04:14:20;;;;;;;11.18;4.95;;;;;;;0.71;100.00;93771.47;5000367;28;20172;-67
2022/12/07 04:17:05;;;;;;;12.52;5.07;;;;;;;0.54;100.00;93764.56;4995966;28;20050;-67
2022/12/07 04:19:34;;;;;;;12.60;5.35;;;;;;;0.55;100.00;93760.75;5009041;28;20716;-67
2022/12/07 04:22:02;;;;;;;9.55;4.60;;;;;;;0.58;100.00;93758.13;5011055;28;20057;-66
2022/12/07 04:24:28;;;;;;;9.13;4.13;;;;;;;0.58;100.00;93760.81;4983675;28;20398;-66
2022/12/07 04:26:56;;;;;;;10.52;4.70;;;;;;;0.43;100.00;93760.88;5003696;28;20388;-66
2022/12/07 04:29:23;;;;;;;12.40;6.03;;;;;;;0.50;100.00;93758.31;5013066;28;20050;-66
2022/12/07 04:31:50;;;;;;;10.20;4.60;;;;;;;0.37;100.00;93757.69;5013042;28;20568;-66
2022/12/07 04:34:18;;;;;;;10.93;4.88;;;;;;;0.51;100.00;93759.91;5019429;28;20064;-66
2022/12/07 04:36:46;;;;;;;12.25;4.55;;;;;;;0.41;100.00;93760.47;4994478;28;20103;-67
2022/12/07 04:39:32;;;;;;;11.48;4.53;;;;;;;0.50;100.00;93758.31;4997322;28;20073;-66
2022/12/07 04:41:59;;;;;;;11.38;4.32;;;;;;;0.56;100.00;93762.28;5000563;28;20050;-66
2022/12/07 04:44:28;;;;;;;13.15;5.60;;;;;;;0.51;100.00;93759.91;4993634;28;20054;-66
2022/12/07 04:46:56;;;;;;;12.45;5.03;;;;;;;0.48;100.00;93758.66;5004420;28;20096;-66
2022/12/07 04:49:24;;;;;;;11.80;4.55;;;;;;;0.55;100.00;93758.03;5012800;28;20675;-66
2022/12/07 04:51:51;;;;;;;10.77;4.50;;;;;;;0.61;100.00;93761.25;5002428;28;20044;-67
2022/12/07 04:54:18;;;;;;;13.32;5.38;;;;;;;0.48;100.00;93758.66;4995117;28;21671;-67
2022/12/07 04:56:45;;;;;;;14.52;5.72;;;;;;;0.48;100.00;93766.00;5006412;28;20434;-67
2022/12/07 04:59:13;;;;;;;13.60;5.55;;;;;;;0.48;100.00;93760.59;5012260;28;20099;-66
2022/12/07 05:01:40;;;;;;;11.85;4.93;;;;;;;0.54;100.00;93757.28;5027602;28;20042;-67
2022/12/07 05:04:07;;;;;;;11.82;5.38;;;;;;;0.53;100.00;93769.19;5011915;28;20046;-66
2022/12/07 05:06:34;;;;;;;11.10;4.80;;;;;;;0.56;100.00;93765.78;5011452;28;20067;-67
2022/12/07 05:09:02;;;;;;;12.23;5.30;;;;;;;0.53;100.00;93771.13;5003191;28;20495;-66
2022/12/07 05:11:37;;;;;;;12.20;5.78;;;;;;;0.68;100.00;93772.19;4994465;28;20052;-67
2022/12/07 05:14:19;;;;;;;11.40;5.53;;;;;;;0.75;100.00;93759.59;5012201;28;20068;-66
2022/12/07 05:16:49;;;;;;;10.65;5.10;;;;;;;0.58;100.00;93765.41;5012676;28;20042;-66
2022/12/07 05:19:17;;;;;;;10.68;5.00;;;;;;;0.71;100.00;93768.78;5011909;28;20045;-67
2022/12/07 05:21:44;;;;;;;9.85;4.57;;;;;;;0.68;100.00;93767.53;5012649;28;20042;-66
2022/12/07 05:24:13;;;;;;;10.95;5.00;;;;;;;0.67;100.00;93767.94;5010958;28;20403;-66
2022/12/07 05:26:40;;;;;;;9.27;4.40;;;;;;;0.71;100.00;93760.69;5002034;28;20045;-67
2022/12/07 05:29:07;;;;;;;9.13;4.65;;;;;;;0.71;100.00;93763.38;5011928;28;20053;-66
2022/12/07 05:31:34;;;;;;;11.60;5.03;;;;;;;0.76;100.00;93763.84;5012298;28;20054;-67
2022/12/07 05:34:01;;;;;;;10.45;4.68;;;;;;;0.85;100.00;93769.03;5005755;28;20135;-66
2022/12/07 05:36:30;;;;;;;10.50;4.90;;;;;;;0.85;100.00;93777.16;4989081;28;20117;-66
2022/12/07 05:38:58;;;;;;;9.48;4.55;;;;;;;0.89;100.00;93767.19;5007672;28;20050;-66
2022/12/07 05:44:10;;;;;;;10.73;5.00;;;;;;;0.75;99.06;93775.81;4991936;28;20050;-67
2022/12/07 05:46:37;;;;;;;8.98;4.25;;;;;;;0.77;98.42;93773.53;5011531;28;20049;-67
2022/12/07 05:49:04;;;;;;;12.23;5.57;;;;;;;0.69;98.71;93773.75;5011473;28;20076;-66
2022/12/07 05:51:30;;;;;;;9.98;5.13;;;;;;;0.47;99.08;93770.63;5008459;28;20106;-66
2022/12/07 05:53:57;;;;;;;11.52;5.35;;;;;;;0.49;100.00;93768.34;5001106;28;20458;-66
2022/12/07 05:56:24;;;;;;;11.88;5.78;;;;;;;0.55;99.77;93776.94;5001075;28;20056;-66
2022/12/07 06:01:37;;;;;;;11.88;6.30;;;;;;;0.62;98.64;93774.38;5010180;28;20803;-66
2022/12/07 06:04:04;;;;;;;13.55;6.75;;;;;;;0.59;98.42;93772.41;4999196;28;20072;-66
2022/12/07 06:06:30;;;;;;;12.18;6.18;;;;;;;0.64;98.01;93772.09;5011197;28;20046;-67
2022/12/07 06:08:57;;;;;;;9.75;5.07;;;;;;;0.50;97.77;93777.22;5004783;28;20060;-66
2022/12/07 06:14:09;;;;;;;11.52;5.30;;;;;;;0.35;99.16;93770.75;5010948;28;20113;-66
2022/12/07 06:16:36;;;;;;;13.15;5.38;;;;;;;0.52;98.37;93774.94;4998234;28;20062;-66
2022/12/07 06:19:03;;;;;;;12.48;6.07;;;;;;;0.54;97.83;93773.47;5010729;28;20042;-66
2022/12/07 06:21:29;;;;;;;12.98;5.70;;;;;;;0.50;97.00;93769.13;5011449;28;20050;-66
2022/12/07 06:23:56;;;;;;;10.23;5.35;;;;;;;0.39;97.61;93771.59;5011081;28;20400;-66
2022/12/07 06:26:23;;;;;;;14.35;5.78;;;;;;;0.18;96.79;93772.72;4997388;28;20048;-66
2022/12/07 06:28:49;;;;;;;13.38;6.43;;;;;;;-0.17;100.00;93775.41;5011305;28;20046;-67
2022/12/07 06:31:16;;;;;;;14.68;7.10;;;;;;;-0.30;100.00;93773.94;5010161;28;20099;-66
2022/12/07 06:33:43;;;;;;;16.13;7.53;;;;;;;-0.12;100.00;93771.66;5011024;28;20041;-67
2022/12/07 06:36:10;;;;;;;14.90;6.90;;;;;;;-0.21;100.00;93769.94;5010403;28;20423;-67
2022/12/07 06:38:37;;;;;;;15.85;7.65;;;;;;;-0.36;100.00;93781.53;5011006;28;20487;-66
2022/12/07 06:41:04;;;;;;;15.50;7.00;;;;;;;-0.17;100.00;93780.03;5010103;28;20398;-66
2022/12/07 06:43:31;;;;;;;18.83;8.15;;;;;;;-0.50;100.00;93776.59;5003357;28;20058;-67
2022/12/07 06:45:57;;;;;;;17.30;7.40;;;;;;;-0.50;100.00;93781.19;5003464;28;20046;-65
2022/12/07 06:48:24;;;;;;;17.02;7.32;;;;;;;-0.28;100.00;93777.88;5010568;28;20380;-65
2022/12/07 06:50:51;;;;;;;17.33;8.75;;;;;;;-0.08;100.00;93786.00;5010670;28;20291;-65
2022/12/07 06:53:21;;;;;;;17.25;7.75;;;;;;;-0.18;100.00;93781.94;5009503;28;20767;-67
2022/12/07 06:55:48;;;;;;;18.63;7.90;;;;;;;-0.09;100.00;93784.44;5004376;28;20058;-65
2022/12/07 06:58:16;;;;;;;18.58;8.50;;;;;;;-0.27;100.00;93775.94;5002735;28;20052;-68
2022/12/07 07:00:44;;;;;;;15.73;6.95;;;;;;;-0.30;100.00;93780.13;5009135;28;20050;-68
2022/12/07 07:03:11;;;;;;;16.77;7.78;;;;;;;-0.11;100.00;93773.22;4995614;28;20045;-68
2022/12/07 07:05:38;;;;;;;16.85;7.70;;;;;;;-0.07;100.00;93784.88;4988741;28;20499;-68
2022/12/07 07:08:05;;;;;;;19.08;7.85;;;;;;;-0.05;100.00;93791.47;4990831;28;20046;-67
2022/12/07 07:10:48;;;;;;;17.10;7.80;;;;;;;-0.05;100.00;93796.88;5004146;28;20050;-67
2022/12/07 07:13:15;;;;;;;13.95;6.18;;;;;;;-0.11;100.00;93797.50;4982191;28;20046;-67
2022/12/07 07:15:42;;;;;;;17.10;7.53;;;;;;;-0.21;100.00;93794.19;5010399;28;20045;-68
2022/12/07 07:18:09;;;;;;;16.45;7.65;;;;;;;-0.29;100.00;93787.06;5009380;28;20072;-68
2022/12/07 07:20:39;;;;;;;17.60;7.47;;;;;;;-0.23;100.00;93790.28;5009810;28;20050;-68
2022/12/07 07:23:06;;;;;;;19.52;9.07;;;;;;;-0.24;100.00;93799.53;5010134;28;20388;-68
2022/12/07 07:25:33;;;;;;;18.65;8.45;;;;;;;-0.33;100.00;93796.22;5001696;28;20494;-67
2022/12/07 07:28:00;;;;;;;18.35;8.30;;;;;;;-0.31;100.00;93802.81;4998687;28;20387;-68
2022/12/07 07:30:27;;;;;;;18.23;8.43;;;;;;;-0.36;100.00;93802.31;4990967;28;20402;-68
2022/12/07 07:32:58;;;;;;;19.77;8.63;;;;;;;-0.27;100.00;93803.69;4993936;28;20115;-67
2022/12/07 07:35:26;;;;;;;20.92;9.85;;;;;;;-0.21;100.00;93804.22;4994984;28;20487;-68
2022/12/07 07:37:52;;;;;;;17.88;8.38;;;;;;;-0.25;100.00;93793.34;4995867;28;20376;-68
2022/12/07 07:40:19;;;;;;;18.70;8.93;;;;;;;-0.13;100.00;93802.47;5009878;28;20128;-68
2022/12/07 07:42:53;;;;;;;18.35;8.60;;;;;;;-0.18;100.00;93803.53;5010120;28;20050;-67
2022/12/07 07:45:22;;;;;;;16.05;8.10;;;;;;;-0.07;100.00;93804.53;5000956;28;20573;-68
2022/12/07 07:47:49;;;;;;;13.30;6.13;;;;;;;0.03;100.00;93805.16;5004983;28;20054;-68
2022/12/07 07:50:17;;;;;;;13.55;6.10;;;;;;;-0.05;100.00;93802.28;4982503;28;20041;-68
2022/12/07 07:52:44;;;;;;;14.75;6.80;;;;;;;-0.06;100.00;93806.13;5009852;28;20045;-67
2022/12/07 07:55:11;;;;;;;13.73;6.38;;;;;;;-0.05;99.94;93807.66;4994478;28;20046;-68
2022/12/07 07:57:39;;;;;;;13.02;5.70;;;;;;;0.03;99.29;93813.22;5001754;28;20446;-68
2022/12/07 08:00:12;;;;;;;11.90;5.65;;;;;;;0.07;98.59;93806.00;5013356;28;20103;-68
2022/12/07 08:02:40;;;;;;;10.75;5.05;;;;;;;0.13;98.21;93810.00;5003836;28;20490;-68
2022/12/07 08:05:07;;;;;;;10.57;5.13;;;;;;;0.16;98.02;93810.06;5009969;28;20123;-68
2022/12/07 08:07:33;;;;;;;10.75;5.10;;;;;;;0.13;97.28;93802.66;5013603;28;20054;-68
2022/12/07 08:10:00;;;;;;;13.40;6.00;;;;;;;0.16;97.00;93804.69;5013381;28;20343;-68
2022/12/07 08:12:27;;;;;;;14.20;7.90;;;;;;;0.30;96.46;93806.09;5013896;28;20442;-68
2022/12/07 08:14:54;;;;;;;18.83;9.70;;;;;;;0.26;95.23;93818.75;5013363;28;20399;-68
2022/12/07 08:17:21;;;;;;;16.83;9.13;;;;;;;0.40;95.50;93810.94;5013426;28;20052;-68
2022/12/07 08:19:47;;;;;;;13.82;7.18;;;;;;;0.56;94.43;93806.31;5014014;28;20045;-68
2022/12/07 08:22:14;;;;;;;15.50;7.25;;;;;;;0.93;94.16;93811.28;5013150;28;20081;-68
2022/12/07 08:24:41;;;;;;;16.20;8.95;;;;;;;1.36;92.69;93811.28;5005220;28;20373;-68
2022/12/07 08:27:07;;;;;;;16.25;8.10;;;;;;;2.02;89.88;93803.84;5008166;28;20050;-68
2022/12/07 08:29:34;;;;;;;17.08;9.10;;;;;;;1.30;90.49;93818.13;5013404;28;20041;-68
2022/12/07 08:32:01;;;;;;;16.17;8.00;;;;;;;2.00;88.98;93822.38;5013086;28;20052;-67
2022/12/07 08:34:35;;;;;;;12.15;6.15;;;;;;;2.29;86.66;93829.00;5013441;28;20387;-68
2022/12/07 08:37:02;;;;;;;14.43;6.60;;;;;;;2.37;85.03;93827.97;5001138;28;20046;-67
2022/12/07 08:39:29;;;;;;;15.40;8.05;;;;;;;2.33;84.86;93837.94;5011558;28;20060;-68
2022/12/07 08:41:58;;;;;;;13.63;6.68;;;;;;;2.44;85.16;93834.63;5011731;28;20050;-68
2022/12/07 08:44:24;;;;;;;12.80;6.65;;;;;;;2.36;84.90;93833.75;5012938;28;20058;-68
2022/12/07 08:46:56;;;;;;;32.28;15.30;;;;;;;2.37;84.61;93827.16;5013373;28;20038;-68
2022/12/07 08:49:31;;;;;;;19.40;9.20;;;;;;;1.76;86.38;93837.84;5012434;28;20626;-68
2022/12/07 08:51:58;;;;;;;16.88;7.90;;;;;;;1.12;91.93;93831.31;5012897;28;20040;-67
2022/12/07 08:54:25;;;;;;;19.25;9.32;;;;;;;0.81;92.10;93833.03;5012887;28;20415;-68
2022/12/07 08:56:54;;;;;;;19.13;9.35;;;;;;;0.38;97.11;93845.63;5000810;28;20064;-66
2022/12/07 08:59:27;;;;;;;17.98;8.77;;;;;;;0.75;94.91;93845.25;5013349;28;20049;-67
2022/12/07 09:01:54;;;;;;;19.60;9.13;;;;;;;1.39;93.08;93837.59;5012358;28;20461;-67
2022/12/07 09:04:21;;;;;;;18.23;8.60;;;;;;;1.68;90.39;93846.22;5012838;28;20535;-68
2022/12/07 09:06:48;;;;;;;18.00;8.38;;;;;;;1.28;90.60;93840.09;5012830;28;20054;-68
2022/12/07 09:09:15;;;;;;;14.50;7.67;;;;;;;0.45;93.62;93840.38;5008632;28;20073;-67
2022/12/07 09:11:42;;;;;;;20.77;9.35;;;;;;;0.24;95.93;93840.69;4993560;28;20092;-67
2022/12/07 09:14:09;;;;;;;18.52;8.88;;;;;;;0.83;94.69;93838.09;4996665;28;20038;-68
2022/12/07 09:16:35;;;;;;;17.60;8.00;;;;;;;1.79;88.39;93844.44;4992715;28;20120;-68
2022/12/07 09:19:02;;;;;;;15.82;7.90;;;;;;;1.84;87.20;93843.38;5000439;28;20042;-68
2022/12/07 09:21:29;;;;;;;17.70;7.93;;;;;;;2.69;84.37;93846.56;5009737;28;20037;-68
2022/12/07 09:23:56;;;;;;;16.42;7.75;;;;;;;2.53;82.21;93840.56;5012340;28;20058;-67
2022/12/07 09:26:23;;;;;;;16.98;7.70;;;;;;;1.49;87.45;93853.25;5007289;28;20030;-67
2022/12/07 09:28:49;;;;;;;15.10;8.20;;;;;;;0.78;89.79;93858.81;4998192;28;20053;-68
2022/12/07 09:31:17;;;;;;;13.85;7.00;;;;;;;1.03;91.24;93855.03;5012070;28;20056;-68
2022/12/07 09:34:00;;;;;;;14.63;7.40;;;;;;;1.50;86.62;93852.09;5012209;28;20426;-68
2022/12/07 09:36:27;;;;;;;16.75;7.07;;;;;;;3.56;80.90;93846.44;5011461;28;20571;-68
2022/12/07 09:38:55;;;;;;;13.45;7.00;;;;;;;2.56;81.97;93839.84;5026786;28;20041;-67
2022/12/07 09:41:23;;;;;;;15.45;7.18;;;;;;;3.27;79.90;93836.44;5012013;28;20458;-68
2022/12/07 09:43:51;;;;;;;15.77;7.93;;;;;;;4.54;74.24;93834.41;5007904;28;20054;-68
2022/12/07 09:46:20;;;;;;;13.10;6.87;;;;;;;5.72;70.30;93823.22;5000832;28;20475;-69
2022/12/07 09:48:49;;;;;;;13.82;6.82;;;;;;;4.60;72.23;93822.81;5012338;28;20046;-69
2022/12/07 09:51:22;;;;;;;13.68;6.53;;;;;;;2.63;77.14;93833.72;5006053;28;20042;-69
2022/12/07 09:53:53;;;;;;;10.30;5.55;;;;;;;3.31;75.23;93826.41;5005799;28;20052;-69
2022/12/07 09:56:21;;;;;;;13.27;6.70;;;;;;;4.08;73.35;93829.44;5004443;28;21647;-69
2022/12/07 09:58:49;;;;;;;15.73;8.00;;;;;;;3.82;73.93;93823.00;5012050;28;20492;-68
2022/12/07 10:01:18;;;;;;;10.93;5.90;;;;;;;2.16;78.24;93828.44;5011352;28;20045;-68
2022/12/07 10:03:58;;;;;;;15.15;7.60;;;;;;;1.12;85.14;93826.66;5011498;28;20111;-68
2022/12/07 10:06:25;;;;;;;14.63;7.93;;;;;;;0.82;88.40;93828.41;5010660;28;20579;-68
2022/12/07 10:08:52;;;;;;;16.50;8.18;;;;;;;0.79;90.07;93819.09;5011783;28;20045;-68
2022/12/07 10:11:18;;;;;;;16.73;7.60;;;;;;;1.83;87.51;93814.75;4990764;28;21584;-68
2022/12/07 10:13:53;;;;;;;24.33;7.63;;;;;;;1.72;85.46;93811.88;4996056;28;20057;-68
2022/12/07 10:16:32;;;;;;;15.43;6.60;;;;;;;2.36;83.20;93804.72;5002622;28;20110;-68
2022/12/07 10:19:18;;;;;;;14.20;6.13;;;;;;;3.15;78.94;93813.06;4998133;28;20553;-67
2022/12/07 10:22:13;;;;;;;11.60;5.88;;;;;;;3.13;75.30;93810.72;5005618;28;20483;-68
2022/12/07 10:24:42;;;;;;;9.27;4.53;;;;;;;3.46;73.32;93801.00;5006067;28;20104;-68
2022/12/07 10:27:29;;;;;;;9.13;3.90;;;;;;;3.80;70.75;93798.97;4981066;28;20042;-67
2022/12/07 10:29:58;;;;;;;11.57;4.38;;;;;;;4.11;69.35;93791.44;5009162;28;20050;-67
2022/12/07 10:32:32;;;;;;;14.07;4.10;;;;;;;4.07;68.45;93787.94;5001561;28;20049;-68
2022/12/07 10:35:19;;;;;;;14.70;4.47;;;;;;;3.89;68.60;93792.44;5007517;28;20052;-67
2022/12/07 10:37:47;;;;;;;16.00;5.00;;;;;;;4.37;67.48;93784.25;5001383;28;20046;-68
2022/12/07 10:40:33;;;;;;;10.20;3.90;;;;;;;4.06;65.97;93780.94;5007055;28;20054;-68
2022/12/07 10:43:17;;;;;;;16.70;4.03;;;;;;;4.07;66.92;93774.34;5000200;28;20062;-67
2022/12/07 10:45:49;;;;;;;31.10;5.47;;;;;;;4.42;64.63;93770.28;4999285;28;20042;-68
2022/12/07 10:48:58;;;;;;;9.25;3.40;;;;;;;3.59;65.43;93777.84;5010086;28;20453;-69
2022/12/07 10:51:40;;;;;;;15.30;4.40;;;;;;;4.18;64.40;93766.25;4998426;28;20368;-68
2022/12/07 10:54:27;;;;;;;18.23;4.07;;;;;;;4.53;63.13;93771.13;5010286;28;20383;-67
2022/12/07 10:57:14;;;;;;;8.38;3.42;;;;;;;2.98;65.61;93760.22;5007654;28;20042;-67
2022/12/07 10:59:44;;;;;;;8.25;3.00;;;;;;;1.66;70.04;93760.00;5005221;28;20165;-68
2022/12/07 11:02:44;;;;;;;15.13;3.60;;;;;;;3.52;66.98;93756.09;5002012;28;20410;-68
2022/12/07 11:05:18;;;;;;;14.40;3.87;;;;;;;4.21;63.65;93743.78;5008553;28;20076;-68
2022/12/07 11:07:56;;;;;;;20.63;4.28;;;;;;;4.65;62.30;93748.28;5010119;28;20113;-68
2022/12/07 11:10:24;;;;;;;8.63;4.15;;;;;;;4.08;63.45;93747.97;4997166;28;20050;-68
2022/12/07 11:12:51;;;;;;;9.77;3.90;;;;;;;3.25;65.90;93751.97;4991426;28;20055;-68
2022/12/07 11:15:25;;;;;;;15.13;5.50;;;;;;;4.42;64.76;93740.41;4994645;28;21554;-68
2022/12/07 11:18:12;;;;;;;10.03;3.80;;;;;;;5.26;61.70;93742.28;5008948;28;20046;-67
2022/12/07 11:21:15;;;;;;;13.07;4.28;;;;;;;5.25;59.86;93743.41;5000506;28;20072;-69
2022/12/07 11:23:48;;;;;;;7.90;3.85;;;;;;;4.89;61.89;93737.88;5009397;28;21553;-68
2022/12/07 11:26:29;;;;;;;9.05;4.47;;;;;;;5.66;59.74;93727.53;5006419;28;20045;-69
2022/12/07 11:29:24;;;;;;;14.60;4.03;;;;;;;4.41;61.17;93730.72;4977278;28;20104;-68
2022/12/07 11:32:40;;;;;;;6.90;3.77;;;;;;;2.93;66.80;93739.63;5006649;28;20056;-69
2022/12/07 11:35:09;;;;;;;9.88;3.97;;;;;;;2.25;69.82;93744.22;4977669;28;20042;-68
2022/12/07 11:37:37;;;;;;;11.35;5.10;;;;;;;3.27;67.90;93733.38;5010007;28;20056;-68
2022/12/07 11:40:24;;;;;;;10.63;4.20;;;;;;;2.39;69.69;93730.09;5009960;28;20125;-68
2022/12/07 11:43:20;;;;;;;10.23;4.28;;;;;;;1.92;72.90;93728.69;5008642;28;20042;-69
2022/12/07 11:45:54;;;;;;;12.20;5.30;;;;;;;2.31;72.52;93731.16;4981935;28;20061;-68
2022/12/07 11:48:34;;;;;;;16.15;5.47;;;;;;;2.56;73.30;93721.41;5009129;28;20046;-68
2022/12/07 11:51:02;;;;;;;12.00;5.32;;;;;;;1.82;75.09;93721.22;5009897;28;20535;-68
2022/12/07 11:53:43;;;;;;;12.93;5.05;;;;;;;3.30;71.08;93716.34;5010002;28;20042;-68
2022/12/07 11:56:15;;;;;;;11.48;5.20;;;;;;;3.88;67.75;93712.16;5005082;28;20062;-68
2022/12/07 11:58:47;;;;;;;11.17;5.03;;;;;;;5.57;65.22;93705.34;5009948;28;20050;-68